SPHI/CIX METAR and TAF weather

Enter ICAO airport designator
Station Type Date Time Source
SPHI METAR 2019/12/11 12:00 UTC NOAA

SPHI 111200Z 18008KT 9999 OVC017 21/18 Q1014 RMK BR/S-SW BIRD HAZARD RWY 19/01 PP000 TMN19.6


Station Type Date Time Source
SPHI Decoded METAR 2019/12/11 12:00 UTC NOAA

Chiclayo, Peru (SPHI) 06-47S 079-50W 34M
Dec 11, 2019 - 07:00 AM EST / 2019.12.11 1200 UTC
Wind: from the S (180 degrees) at 9 MPH (8 KT):0
Visibility: greater than 7 mile(s):0
Sky conditions: overcast
Temperature: 69 F (21 C)
Dew Point: 64 F (18 C)
Relative Humidity: 82%
Pressure (altimeter): 29.94 in. Hg (1014 hPa)
ob: SPHI 111200Z 18008KT 9999 OVC017 21/18 Q1014 RMK BR/S-SW BIRD HAZARD RWY 19/01 PP000 TMN19.6
cycle: 12

Station Type Date Time Source
SPHI TAF 2019/12/11 12:33 UTC NOAA

TAF SPHI 111100Z 1112/1212 17008KT 9999 OVC016 TX28/1019Z TN19/1211Z
BECMG 1117/1119 18020KT CAVOK
BECMG 1203/1205 19010KT

Example: see airport list